createdAt,value
2023-05-06T00:00:52.374Z,14.62
2023-05-06T00:03:20.939Z,14.62
2023-05-06T00:05:49.754Z,14.52
2023-05-06T00:08:21.954Z,14.49
2023-05-06T00:10:53.432Z,14.58
2023-05-06T00:13:21.643Z,14.53
2023-05-06T00:15:52.245Z,14.50
2023-05-06T00:18:23.030Z,14.43
2023-05-06T00:20:52.232Z,14.45
2023-05-06T00:23:22.970Z,14.44
2023-05-06T00:25:50.837Z,14.44
2023-05-06T00:28:20.872Z,14.41
2023-05-06T00:30:53.077Z,14.42
2023-05-06T00:33:22.438Z,14.32
2023-05-06T00:35:50.819Z,14.39
2023-05-06T00:38:19.785Z,14.40
2023-05-06T00:40:51.352Z,14.37
2023-05-06T00:43:23.674Z,14.36
2023-05-06T00:45:56.215Z,14.35
2023-05-06T00:48:25.813Z,14.29
2023-05-06T00:50:56.176Z,14.38
2023-05-06T00:53:24.061Z,14.34
2023-05-06T00:55:54.709Z,14.32
2023-05-06T00:58:24.067Z,14.26
2023-05-06T01:01:00.105Z,14.33
2023-05-06T01:03:28.511Z,14.29
2023-05-06T01:06:06.215Z,14.26
2023-05-06T01:08:39.107Z,14.25
2023-05-06T01:11:15.608Z,14.25
2023-05-06T01:13:49.883Z,14.19
2023-05-06T01:16:25.215Z,14.22
2023-05-06T01:18:54.806Z,14.15
2023-05-06T01:21:34.584Z,14.11
2023-05-06T01:24:07.221Z,14.07
2023-05-06T01:26:36.126Z,14.06
2023-05-06T01:29:06.779Z,14.08
2023-05-06T01:31:44.307Z,14.09
2023-05-06T01:34:21.184Z,14.08
2023-05-06T01:36:57.871Z,14.07
2023-05-06T01:39:31.270Z,14.01
2023-05-06T01:42:03.255Z,14.01
2023-05-06T01:44:41.024Z,14.02
2023-05-06T01:47:10.616Z,13.96
2023-05-06T01:49:40.352Z,14.03
2023-05-06T01:52:10.250Z,14.04
2023-05-06T01:54:39.692Z,14.03
2023-05-06T01:57:09.478Z,14.02
2023-05-06T01:59:37.846Z,13.99
2023-05-06T02:02:08.335Z,13.97
2023-05-06T02:04:36.338Z,13.90
2023-05-06T02:07:05.799Z,13.88
2023-05-06T02:09:37.628Z,13.83
2023-05-06T02:12:08.476Z,13.97
2023-05-06T02:14:39.597Z,13.87
2023-05-06T02:17:10.386Z,13.89
2023-05-06T02:19:48.126Z,13.79
2023-05-06T02:22:16.525Z,13.71
2023-05-06T02:24:45.401Z,13.69
2023-05-06T02:27:14.895Z,13.65
2023-05-06T02:29:47.266Z,13.67
2023-05-06T02:32:24.524Z,13.65
2023-05-06T02:35:08.982Z,13.68
2023-05-06T02:37:37.893Z,13.70
2023-05-06T02:40:10.272Z,13.67
2023-05-06T02:42:40.216Z,13.65
2023-05-06T02:45:10.090Z,13.68
2023-05-06T02:47:45.884Z,13.71
2023-05-06T02:50:14.282Z,13.69
2023-05-06T02:52:42.891Z,13.70
2023-05-06T02:55:12.885Z,13.69
2023-05-06T02:57:42.349Z,13.68
2023-05-06T03:00:13.171Z,13.70
2023-05-06T03:02:44.039Z,13.73
2023-05-06T03:05:12.422Z,13.79
2023-05-06T03:07:41.317Z,13.81
2023-05-06T03:10:13.037Z,13.78
2023-05-06T03:12:42.360Z,13.75
2023-05-06T03:15:11.793Z,13.76
2023-05-06T03:17:39.738Z,13.75
2023-05-06T03:20:10.001Z,13.76
2023-05-06T03:22:38.174Z,13.74
2023-05-06T03:25:08.117Z,13.68
2023-05-06T03:27:36.731Z,13.74
2023-05-06T03:30:08.829Z,13.72
2023-05-06T03:32:37.099Z,13.75
2023-05-06T03:35:06.677Z,13.75
2023-05-06T03:37:35.965Z,13.78
2023-05-06T03:40:09.390Z,13.78
2023-05-06T03:42:37.235Z,13.75
2023-05-06T03:45:10.275Z,13.76
2023-05-06T03:47:46.033Z,13.74
2023-05-06T03:50:19.687Z,13.73
2023-05-06T03:52:47.587Z,13.75
2023-05-06T03:55:15.535Z,13.80
2023-05-06T03:57:44.383Z,13.79
2023-05-06T04:00:17.464Z,13.79
2023-05-06T04:02:47.818Z,13.79
2023-05-06T04:05:17.336Z,13.81
2023-05-06T04:07:46.342Z,13.81
2023-05-06T04:10:14.318Z,13.78
2023-05-06T04:12:42.681Z,13.74
2023-05-06T04:15:12.067Z,13.74
2023-05-06T04:17:41.822Z,13.78
2023-05-06T04:20:12.344Z,13.75
2023-05-06T04:22:40.655Z,13.78
2023-05-06T04:25:09.737Z,13.84
2023-05-06T04:27:40.298Z,13.83
2023-05-06T04:30:11.483Z,13.84
2023-05-06T04:32:44.093Z,13.88
2023-05-06T04:35:14.744Z,13.94
2023-05-06T04:37:44.551Z,13.84
2023-05-06T04:40:24.860Z,13.85
2023-05-06T04:42:55.674Z,13.86
2023-05-06T04:45:26.041Z,13.88
2023-05-06T04:47:55.392Z,13.89
2023-05-06T04:50:23.698Z,13.99
2023-05-06T04:52:52.619Z,14.00
2023-05-06T04:55:21.065Z,14.06
2023-05-06T04:57:54.619Z,14.11
2023-05-06T05:00:26.532Z,14.18
2023-05-06T05:03:02.001Z,14.21
2023-05-06T05:05:32.954Z,14.29
2023-05-06T05:08:01.734Z,14.28
2023-05-06T05:10:32.810Z,14.33
2023-05-06T05:13:03.011Z,14.35
2023-05-06T05:15:35.909Z,14.46
2023-05-06T05:18:13.800Z,14.41
2023-05-06T05:20:42.094Z,14.35
2023-05-06T05:23:12.015Z,14.35
2023-05-06T05:25:53.420Z,14.41
2023-05-06T05:28:25.272Z,14.35
2023-05-06T05:30:53.612Z,14.38
2023-05-06T05:33:23.281Z,14.51
2023-05-06T05:35:57.295Z,14.67
2023-05-06T05:38:26.509Z,14.86
2023-05-06T05:40:54.428Z,14.81
2023-05-06T05:43:26.025Z,14.78
2023-05-06T05:45:55.398Z,14.76
2023-05-06T05:48:24.763Z,14.69
2023-05-06T05:50:53.262Z,14.75
2023-05-06T05:53:21.431Z,14.66
2023-05-06T05:55:54.223Z,14.61
2023-05-06T05:58:22.487Z,14.72
2023-05-06T06:00:50.264Z,14.76
2023-05-06T06:03:20.473Z,14.86
2023-05-06T06:06:04.870Z,15.19
2023-05-06T06:08:36.024Z,15.28
2023-05-06T06:11:09.258Z,15.23
2023-05-06T06:13:38.130Z,15.30
2023-05-06T06:16:09.831Z,15.35
2023-05-06T06:18:40.635Z,15.42
2023-05-06T06:21:13.198Z,15.36
2023-05-06T06:23:41.625Z,15.41
2023-05-06T06:26:15.686Z,15.48
2023-05-06T06:28:51.029Z,15.57
2023-05-06T06:31:19.834Z,15.64
2023-05-06T06:33:48.715Z,15.64
2023-05-06T06:36:18.845Z,15.73
2023-05-06T06:38:48.271Z,15.70
2023-05-06T06:41:19.296Z,15.62
2023-05-06T06:43:55.749Z,15.65
2023-05-06T06:46:28.786Z,15.54
2023-05-06T06:48:56.667Z,15.70
2023-05-06T06:51:28.841Z,16.00
2023-05-06T06:53:59.668Z,16.60
2023-05-06T06:56:27.405Z,17.22
2023-05-06T06:59:08.169Z,17.13
2023-05-06T07:01:37.611Z,17.20
2023-05-06T07:04:07.599Z,17.05
2023-05-06T07:06:40.559Z,16.87
2023-05-06T07:09:08.626Z,16.58
2023-05-06T07:11:36.665Z,16.36
2023-05-06T07:14:04.449Z,16.78
2023-05-06T07:16:32.161Z,16.84
2023-05-06T07:19:00.182Z,16.61
2023-05-06T07:21:28.350Z,16.43
2023-05-06T07:23:57.561Z,16.94
2023-05-06T07:26:25.344Z,17.39
2023-05-06T07:28:53.106Z,17.06
2023-05-06T07:31:21.887Z,16.90
2023-05-06T07:33:50.015Z,17.36
2023-05-06T07:36:17.783Z,17.48
2023-05-06T07:38:45.591Z,17.40
2023-05-06T07:41:14.737Z,17.41
2023-05-06T07:43:42.520Z,17.29
2023-05-06T07:46:10.645Z,17.15
2023-05-06T07:48:38.548Z,17.12
2023-05-06T07:51:06.390Z,18.57
2023-05-06T07:53:34.205Z,19.33
2023-05-06T07:56:03.983Z,19.46
2023-05-06T07:58:33.198Z,19.48
2023-05-06T08:01:03.704Z,18.72
2023-05-06T08:03:32.170Z,17.98
2023-05-06T08:06:00.275Z,17.71
2023-05-06T08:08:28.429Z,17.98
2023-05-06T08:10:56.409Z,17.86
2023-05-06T08:13:24.176Z,17.75
2023-05-06T08:15:53.688Z,17.70
2023-05-06T08:18:22.722Z,17.85
2023-05-06T08:20:51.327Z,19.14
2023-05-06T08:23:19.159Z,21.15
2023-05-06T08:25:47.075Z,23.16
2023-05-06T08:28:14.939Z,23.63
2023-05-06T08:30:42.655Z,21.93
2023-05-06T08:33:12.093Z,20.71
2023-05-06T08:35:39.841Z,20.99
2023-05-06T08:38:07.579Z,21.22
2023-05-06T08:40:35.757Z,21.43
2023-05-06T08:43:05.199Z,22.53
2023-05-06T08:45:34.042Z,21.53
2023-05-06T08:48:02.048Z,23.11
2023-05-06T08:50:31.320Z,23.86
2023-05-06T08:52:59.193Z,24.70
2023-05-06T08:55:29.001Z,25.03
2023-05-06T08:58:01.031Z,24.94
2023-05-06T09:00:28.856Z,24.50
2023-05-06T09:02:56.738Z,22.72
2023-05-06T09:05:24.561Z,23.18
2023-05-06T09:07:53.698Z,24.42
2023-05-06T09:10:21.949Z,22.86
2023-05-06T09:12:49.781Z,22.02
2023-05-06T09:15:17.597Z,23.44
2023-05-06T09:17:45.435Z,24.67
2023-05-06T09:20:13.681Z,25.57
2023-05-06T09:22:42.424Z,25.06
2023-05-06T09:25:12.418Z,25.16
2023-05-06T09:27:41.160Z,24.27
2023-05-06T09:30:11.840Z,25.93
2023-05-06T09:32:40.918Z,26.68
2023-05-06T09:35:10.540Z,25.66
2023-05-06T09:37:38.455Z,24.93
2023-05-06T09:40:07.669Z,26.80
2023-05-06T09:42:37.755Z,26.35
2023-05-06T09:45:09.893Z,24.64
2023-05-06T09:47:38.898Z,23.99
2023-05-06T09:50:10.324Z,23.97
2023-05-06T09:52:38.662Z,23.60
2023-05-06T09:55:07.797Z,24.08
2023-05-06T09:57:38.542Z,24.38
2023-05-06T10:00:12.048Z,24.39
2023-05-06T10:02:42.133Z,23.43
2023-05-06T10:05:12.232Z,22.57
2023-05-06T10:07:41.841Z,23.25
2023-05-06T10:10:11.676Z,23.76
2023-05-06T10:12:41.385Z,23.11
2023-05-06T10:15:10.954Z,22.64
2023-05-06T10:17:41.354Z,23.92
2023-05-06T10:20:13.372Z,23.31
2023-05-06T10:22:53.388Z,22.47
2023-05-06T10:25:31.598Z,22.23
2023-05-06T10:28:02.977Z,21.60
2023-05-06T10:30:35.700Z,21.31
2023-05-06T10:33:06.936Z,20.80
2023-05-06T10:35:49.683Z,20.67
2023-05-06T10:38:23.648Z,20.96
2023-05-06T10:40:52.591Z,21.96
2023-05-06T10:43:32.176Z,22.52
2023-05-06T10:46:06.125Z,22.54
2023-05-06T10:48:34.891Z,22.99
2023-05-06T10:51:25.176Z,23.46
2023-05-06T10:54:03.844Z,23.94
2023-05-06T10:56:33.442Z,24.22
2023-05-06T10:59:08.979Z,23.86
2023-05-06T11:01:38.468Z,23.79
2023-05-06T11:04:10.646Z,23.13
2023-05-06T11:06:41.115Z,22.20
2023-05-06T11:09:17.886Z,21.83
2023-05-06T11:11:54.353Z,21.69
2023-05-06T11:14:31.062Z,21.39
2023-05-06T11:17:01.816Z,21.54
2023-05-06T11:19:34.327Z,21.63
2023-05-06T11:22:05.181Z,21.61
2023-05-06T11:24:40.848Z,21.34
2023-05-06T11:27:09.652Z,21.22
2023-05-06T11:29:40.198Z,21.53
2023-05-06T11:32:24.626Z,21.59
2023-05-06T11:34:57.446Z,21.95
2023-05-06T11:37:28.043Z,22.13
2023-05-06T11:39:56.264Z,23.04
2023-05-06T11:42:28.089Z,23.42
2023-05-06T11:44:59.664Z,23.71
2023-05-06T11:47:28.774Z,23.53
2023-05-06T11:49:56.658Z,23.09
2023-05-06T11:52:24.573Z,23.35
2023-05-06T11:54:53.956Z,24.29
2023-05-06T11:57:22.140Z,23.90
2023-05-06T11:59:55.139Z,24.07
2023-05-06T12:02:25.360Z,23.08
2023-05-06T12:04:53.740Z,22.53
2023-05-06T12:07:22.001Z,22.16
2023-05-06T12:09:51.103Z,21.59
2023-05-06T12:12:22.414Z,21.31
2023-05-06T12:14:51.109Z,21.21
2023-05-06T12:17:19.856Z,21.01
2023-05-06T12:19:50.408Z,20.77
2023-05-06T12:22:20.339Z,20.92
2023-05-06T12:24:50.138Z,21.71
2023-05-06T12:27:30.746Z,22.73
2023-05-06T12:29:58.581Z,22.77
2023-05-06T12:32:26.853Z,22.11
2023-05-06T12:35:05.277Z,21.56
2023-05-06T12:37:33.265Z,21.32
2023-05-06T12:40:01.341Z,21.04
2023-05-06T12:42:30.889Z,21.08
2023-05-06T12:44:59.219Z,21.01
2023-05-06T12:47:27.231Z,21.02
2023-05-06T12:49:59.279Z,21.07
2023-05-06T12:52:29.980Z,21.07
2023-05-06T12:54:58.566Z,21.14
2023-05-06T12:57:29.918Z,21.56
2023-05-06T12:59:57.667Z,21.84
2023-05-06T13:02:25.595Z,22.14
2023-05-06T13:04:53.495Z,22.18
2023-05-06T13:07:22.739Z,21.83
2023-05-06T13:09:50.942Z,21.96
2023-05-06T13:12:18.781Z,22.12
2023-05-06T13:14:46.538Z,22.19
2023-05-06T13:17:14.927Z,22.01
2023-05-06T13:19:42.727Z,21.82
2023-05-06T13:22:10.479Z,21.79
2023-05-06T13:24:40.091Z,22.18
2023-05-06T13:27:07.840Z,21.84
2023-05-06T13:29:35.697Z,21.59
2023-05-06T13:32:05.081Z,21.49
2023-05-06T13:34:34.594Z,21.44
2023-05-06T13:37:02.711Z,21.71
2023-05-06T13:39:30.629Z,21.90
2023-05-06T13:41:59.806Z,21.89
2023-05-06T13:44:28.222Z,21.82
2023-05-06T13:46:57.577Z,21.77
2023-05-06T13:49:25.495Z,21.54
2023-05-06T13:51:54.092Z,21.33
2023-05-06T13:54:22.276Z,21.14
2023-05-06T13:56:50.073Z,21.04
2023-05-06T13:59:21.463Z,20.83
2023-05-06T14:01:53.600Z,20.77
2023-05-06T14:04:21.575Z,20.65
2023-05-06T14:06:49.704Z,20.49
2023-05-06T14:09:18.380Z,20.54
2023-05-06T14:11:46.659Z,20.41
2023-05-06T14:14:15.544Z,20.35
2023-05-06T14:16:48.195Z,20.35
2023-05-06T14:19:16.330Z,20.46
2023-05-06T14:21:44.205Z,20.37
2023-05-06T14:24:13.015Z,20.25
2023-05-06T14:26:41.679Z,20.40
2023-05-06T14:29:11.824Z,20.56
2023-05-06T14:31:40.058Z,20.81
2023-05-06T14:34:09.685Z,20.91
2023-05-06T14:36:39.042Z,21.22
2023-05-06T14:39:07.554Z,21.38
2023-05-06T14:41:35.303Z,21.41
2023-05-06T14:44:03.430Z,21.39
2023-05-06T14:46:31.231Z,21.37
2023-05-06T14:48:59.548Z,21.41
2023-05-06T14:51:28.620Z,21.45
2023-05-06T14:53:59.289Z,21.27
2023-05-06T14:56:27.856Z,21.14
2023-05-06T14:58:56.171Z,21.30
2023-05-06T15:01:25.605Z,21.38
2023-05-06T15:03:54.176Z,21.33
2023-05-06T15:06:23.662Z,21.34
2023-05-06T15:08:53.074Z,21.43
2023-05-06T15:11:22.325Z,21.47
2023-05-06T15:13:50.129Z,21.59
2023-05-06T15:16:18.129Z,21.66
2023-05-06T15:18:46.981Z,21.65
2023-05-06T15:21:17.579Z,21.59
2023-05-06T15:23:47.908Z,21.52
2023-05-06T15:26:18.092Z,21.46
2023-05-06T15:28:49.723Z,21.37
2023-05-06T15:31:17.940Z,21.51
2023-05-06T15:33:45.763Z,21.54
2023-05-06T15:36:13.589Z,21.42
2023-05-06T15:38:59.649Z,21.31
2023-05-06T15:41:33.165Z,21.34
2023-05-06T15:44:03.280Z,21.33
2023-05-06T15:46:33.448Z,21.23
2023-05-06T15:49:31.907Z,21.21
2023-05-06T15:51:49.652Z,21.20
2023-05-06T15:54:19.525Z,21.27
2023-05-06T15:56:49.006Z,21.22
2023-05-06T15:59:17.403Z,21.15
2023-05-06T16:04:17.327Z,20.90
2023-05-06T16:06:47.005Z,20.85
2023-05-06T16:09:15.020Z,20.92
2023-05-06T16:11:43.896Z,20.92
2023-05-06T16:14:13.233Z,20.83
2023-05-06T16:16:43.122Z,20.82
2023-05-06T16:19:11.327Z,20.73
2023-05-06T16:21:39.115Z,20.89
2023-05-06T16:24:08.886Z,20.76
2023-05-06T16:26:36.817Z,20.91
2023-05-06T16:29:04.943Z,20.75
2023-05-06T16:31:36.272Z,20.73
2023-05-06T16:34:06.277Z,20.67
2023-05-06T16:36:34.520Z,20.59
2023-05-06T16:39:02.639Z,20.65
2023-05-06T16:41:31.529Z,20.58
2023-05-06T16:43:59.785Z,20.50
2023-05-06T16:46:28.974Z,20.61
2023-05-06T16:48:59.930Z,20.55
2023-05-06T16:51:27.736Z,20.35
2023-05-06T16:53:59.477Z,20.35
2023-05-06T16:56:36.752Z,20.47
2023-05-06T16:59:13.129Z,20.45
2023-05-06T17:01:43.767Z,20.44
2023-05-06T17:04:12.944Z,20.51
2023-05-06T17:06:40.980Z,20.46
2023-05-06T17:09:08.723Z,20.49
2023-05-06T17:11:36.496Z,20.44
2023-05-06T17:14:04.208Z,20.51
2023-05-06T17:16:32.115Z,20.48
2023-05-06T17:19:00.252Z,20.39
2023-05-06T17:21:30.283Z,20.28
2023-05-06T17:23:58.347Z,20.37
2023-05-06T17:26:26.434Z,20.28
2023-05-06T17:28:54.667Z,20.26
2023-05-06T17:31:22.707Z,20.15
2023-05-06T17:33:50.399Z,20.16
2023-05-06T17:36:20.610Z,20.09
2023-05-06T17:39:02.805Z,20.07
2023-05-06T17:41:30.905Z,19.93
2023-05-06T17:43:59.512Z,19.94
2023-05-06T17:46:31.599Z,19.90
2023-05-06T17:48:59.690Z,19.84
2023-05-06T17:51:28.664Z,19.76
2023-05-06T17:53:59.084Z,19.74
2023-05-06T17:56:27.956Z,19.76
2023-05-06T17:59:02.846Z,19.70
2023-05-06T18:01:31.238Z,19.66
2023-05-06T18:04:03.773Z,19.58
2023-05-06T18:06:32.368Z,19.54
2023-05-06T18:09:02.569Z,19.52
2023-05-06T18:11:33.323Z,19.51
2023-05-06T18:14:02.325Z,19.44
2023-05-06T18:16:33.456Z,19.38
2023-05-06T18:19:04.544Z,19.34
2023-05-06T18:21:33.934Z,19.29
2023-05-06T18:24:15.233Z,19.22
2023-05-06T18:26:46.039Z,19.20
2023-05-06T18:29:14.321Z,19.07
2023-05-06T18:31:42.300Z,19.00
2023-05-06T18:34:10.430Z,18.89
2023-05-06T18:36:38.785Z,18.78
2023-05-06T18:39:08.370Z,18.69
2023-05-06T18:41:36.534Z,18.65
2023-05-06T18:44:05.711Z,18.54
2023-05-06T18:46:33.735Z,18.45
2023-05-06T18:49:02.023Z,18.39
2023-05-06T18:51:32.009Z,18.29
2023-05-06T18:53:59.806Z,18.22
2023-05-06T18:56:30.269Z,18.18
2023-05-06T18:59:00.024Z,18.09
2023-05-06T19:01:27.779Z,18.01
2023-05-06T19:03:56.680Z,17.98
2023-05-06T19:06:24.479Z,17.92
2023-05-06T19:08:55.835Z,17.90
2023-05-06T19:11:23.572Z,17.80
2023-05-06T19:13:53.285Z,17.77
2023-05-06T19:16:21.150Z,17.71
2023-05-06T19:18:54.149Z,17.65
2023-05-06T19:21:22.423Z,17.60
2023-05-06T19:23:53.230Z,17.58
2023-05-06T19:26:22.560Z,17.46
2023-05-06T19:28:55.029Z,17.43
2023-05-06T19:31:25.201Z,17.46
2023-05-06T19:33:56.028Z,17.43
2023-05-06T19:36:25.903Z,17.40
2023-05-06T19:38:59.203Z,17.38
2023-05-06T19:41:29.504Z,17.38
2023-05-06T19:44:00.843Z,17.42
2023-05-06T19:46:30.451Z,17.43
2023-05-06T19:49:00.692Z,17.35
2023-05-06T19:51:28.884Z,17.42
2023-05-06T19:54:00.394Z,17.40
2023-05-06T19:56:28.603Z,17.48
2023-05-06T19:58:58.385Z,17.57
2023-05-06T20:01:28.838Z,17.57
2023-05-06T20:03:59.812Z,17.63
2023-05-06T20:06:37.970Z,17.65
2023-05-06T20:09:06.507Z,17.70
2023-05-06T20:11:37.952Z,17.76
2023-05-06T20:14:10.146Z,17.78
2023-05-06T20:16:49.780Z,17.71
2023-05-06T20:19:26.256Z,17.71
2023-05-06T20:21:55.273Z,17.68
2023-05-06T20:24:26.000Z,17.66
2023-05-06T20:27:01.981Z,17.64
2023-05-06T20:29:37.129Z,17.66
2023-05-06T20:32:06.605Z,17.70
2023-05-06T20:34:36.799Z,17.62
2023-05-06T20:37:09.864Z,17.61
2023-05-06T20:39:38.615Z,17.61
2023-05-06T20:42:11.640Z,17.61
2023-05-06T20:44:41.745Z,17.63
2023-05-06T20:47:12.915Z,17.54
2023-05-06T20:49:42.321Z,17.52
2023-05-06T20:52:15.498Z,17.55
2023-05-06T20:54:51.609Z,17.49
2023-05-06T20:57:21.084Z,17.42
2023-05-06T20:59:53.139Z,17.43
2023-05-06T21:02:21.188Z,17.32
2023-05-06T21:04:51.232Z,17.25
2023-05-06T21:07:21.275Z,17.21
2023-05-06T21:09:49.885Z,17.10
2023-05-06T21:12:19.106Z,16.97
2023-05-06T21:14:53.907Z,16.98
2023-05-06T21:17:27.936Z,16.93
2023-05-06T21:20:01.420Z,16.83
2023-05-06T21:22:31.448Z,16.86
2023-05-06T21:24:59.518Z,16.71
2023-05-06T21:27:34.885Z,16.62
2023-05-06T21:30:06.562Z,16.65
2023-05-06T21:32:35.265Z,16.64
2023-05-06T21:35:06.378Z,16.57
2023-05-06T21:37:35.652Z,16.55
2023-05-06T21:40:09.922Z,16.49
2023-05-06T21:42:37.647Z,16.42
2023-05-06T21:45:20.543Z,16.37
2023-05-06T21:47:50.486Z,16.31
2023-05-06T21:50:32.014Z,16.17
2023-05-06T21:53:03.708Z,16.19
2023-05-06T21:55:32.693Z,16.10
2023-05-06T21:58:02.105Z,16.06
2023-05-06T22:00:32.982Z,16.02
2023-05-06T22:03:02.050Z,15.97
2023-05-06T22:05:33.312Z,15.92
2023-05-06T22:08:04.085Z,15.82
2023-05-06T22:10:37.474Z,15.75
2023-05-06T22:13:08.591Z,15.73
2023-05-06T22:15:39.912Z,15.75
2023-05-06T22:18:09.658Z,15.69
2023-05-06T22:20:38.795Z,15.64
2023-05-06T22:23:07.673Z,15.49
2023-05-06T22:25:43.971Z,15.52
2023-05-06T22:28:14.343Z,15.43
2023-05-06T22:30:57.557Z,15.42
2023-05-06T22:33:27.262Z,15.40
2023-05-06T22:35:58.264Z,15.35
2023-05-06T22:38:26.491Z,15.31
2023-05-06T22:40:58.431Z,15.26
2023-05-06T22:43:27.774Z,15.26
2023-05-06T22:45:59.132Z,15.26
2023-05-06T22:48:28.420Z,15.15
2023-05-06T22:51:05.629Z,15.16
2023-05-06T22:53:34.721Z,15.10
2023-05-06T22:56:03.254Z,15.11
2023-05-06T22:58:33.082Z,15.03
2023-05-06T23:01:03.675Z,14.91
2023-05-06T23:03:33.930Z,14.89
2023-05-06T23:06:04.168Z,14.82
2023-05-06T23:08:34.691Z,14.73
2023-05-06T23:11:02.718Z,14.76
2023-05-06T23:13:36.366Z,14.71
2023-05-06T23:16:07.774Z,14.63
2023-05-06T23:18:36.848Z,14.72
2023-05-06T23:21:05.734Z,14.73
2023-05-06T23:23:33.872Z,14.64
2023-05-06T23:26:02.724Z,14.54
2023-05-06T23:28:30.603Z,14.61
2023-05-06T23:31:05.176Z,14.61
2023-05-06T23:33:37.964Z,14.59
2023-05-06T23:36:08.913Z,14.62
2023-05-06T23:38:42.449Z,14.52
2023-05-06T23:41:11.734Z,14.54
2023-05-06T23:43:47.120Z,14.41
2023-05-06T23:46:14.866Z,14.39
2023-05-06T23:48:44.349Z,14.32
2023-05-06T23:51:12.284Z,14.41
2023-05-06T23:53:43.054Z,14.42
2023-05-06T23:56:13.436Z,14.45
2023-05-06T23:58:41.912Z,14.48
